Houghton, Michigan
Current Conditions -  °F | °C
As of 1:26 PM on Thursday 27 Nov 2014 (Local Time) from KCMX Reporting Station
Light Snow Light Snow  
Wind Chill: -20°   Ceiling: 2000
Heat Index: -12°   Visibility: 1.7mi
Dew Point: -17°   Wind: 10mph
Humidity: 67%   Direction: 350°N
Pressure: 30.31"   Gusts: NA
Location:  47.12°N, 88.57°W
Report Text: KCMX 271826Z AUTO 35009KT 1 3/4SM -SN BKN020 OVC034 M12/M17 A3031 RMK AO2 SNE14B19 P0000 T11221172
Loading
Personal Weather Stations






























Interactive Weather Map New forecast layout! Learn more

10-Day Weather Forecast

Advertisements
Track Severe Weather on mobile